Time;durP1;ratioP1;P1;durP2;ratioP2;P2;SDS_P1;SDS_P2;PMS_P1;PMS_P2;Temp;Humidity;BMP_temperature;BMP_pressure;BME280_temperature;BME280_humidity;BME280_pressure;Samples;Min_cycle;Max_cycle;Signal;HPM_P1;HPM_P2
2022/04/01 04:01:50;;;;;;;7.00;5.67;;;5.90;99.90;;;;;;5334124;23;20508;-80
2022/04/01 04:04:18;;;;;;;8.20;6.60;;;6.00;99.90;;;;;;4947907;29;20449;-79
2022/04/01 04:06:46;;;;;;;6.13;5.53;;;6.00;99.90;;;;;;4947101;29;20869;-80
2022/04/01 04:09:13;;;;;;;6.33;5.30;;;6.00;99.90;;;;;;4947527;29;20483;-79
2022/04/01 04:11:40;;;;;;;5.40;4.90;;;6.00;99.90;;;;;;4947575;28;20963;-80
2022/04/01 04:14:08;;;;;;;6.63;5.80;;;5.90;99.90;;;;;;4947656;29;20826;-80
2022/04/01 04:16:40;;;;;;;5.43;4.83;;;5.90;99.90;;;;;;4947000;28;20965;-80
2022/04/01 04:19:16;;;;;;;5.37;4.87;;;5.90;99.90;;;;;;4951127;29;20834;-80
2022/04/01 04:21:50;;;;;;;5.50;5.00;;;5.80;99.90;;;;;;4951931;28;20476;-80
2022/04/01 04:24:20;;;;;;;5.00;4.60;;;5.80;99.90;;;;;;4953774;29;20446;-81
2022/04/01 04:26:50;;;;;;;4.97;4.47;;;5.80;99.90;;;;;;4953233;28;20641;-80
2022/04/01 04:29:19;;;;;;;5.77;5.23;;;5.80;99.90;;;;;;4953767;29;20465;-81
2022/04/01 04:31:53;;;;;;;5.40;4.90;;;5.80;99.90;;;;;;4952093;29;20501;-81
2022/04/01 04:34:23;;;;;;;6.67;5.40;;;5.80;99.90;;;;;;4952662;29;20457;-79
2022/04/01 04:36:52;;;;;;;5.30;4.63;;;5.80;99.90;;;;;;4952819;29;20458;-80
2022/04/01 04:39:31;;;;;;;5.93;5.33;;;5.80;99.90;;;;;;4953188;29;20456;-80
2022/04/01 04:41:59;;;;;;;5.90;5.30;;;5.70;99.90;;;;;;4952741;28;20476;-80
2022/04/01 04:44:29;;;;;;;5.27;4.77;;;5.60;99.90;;;;;;4952570;29;20468;-80
2022/04/01 04:46:56;;;;;;;4.40;4.00;;;5.60;99.90;;;;;;4952370;29;20933;-80
2022/04/01 04:49:27;;;;;;;5.97;5.37;;;5.50;99.90;;;;;;4952493;29;20462;-80
2022/04/01 04:51:56;;;;;;;7.50;5.10;;;5.50;99.90;;;;;;4952372;28;21097;-80
2022/04/01 04:54:25;;;;;;;5.17;4.73;;;5.40;99.90;;;23.48;0.00;147114.59;4952605;29;20496;-80
2022/04/01 04:56:54;;;;;;;5.20;4.70;;;5.30;99.90;;;;;;4951818;29;20489;-81
2022/04/01 04:59:22;;;;;;;5.53;4.10;;;5.30;99.90;;;;;;4951646;29;20521;-72
2022/04/01 05:01:56;;;;;;;5.30;4.80;;;5.20;99.90;;;;;;4949788;29;20509;-73
2022/04/01 05:04:40;;;;;;;5.50;5.00;;;5.20;99.90;;;;;;4949858;28;20512;-73
2022/04/01 05:07:22;;;;;;;5.50;5.00;;;5.20;99.90;;;;;;4949458;29;20461;-72
2022/04/01 05:10:00;;;;;;;5.57;4.80;;;5.10;99.90;;;;;;4952243;29;21243;-80
2022/04/01 05:12:36;;;;;;;5.10;4.33;;;5.10;99.90;;;;;;4953537;29;20473;-80
2022/04/01 05:15:09;;;;;;;5.60;5.07;;;5.10;99.90;;;;;;4953099;28;20451;-79
2022/04/01 05:17:37;;;;;;;5.80;5.20;;;5.00;99.90;;;;;;4951954;28;20953;-80
2022/04/01 05:20:15;;;;;;;5.53;4.90;;;5.10;99.90;;;;;;4952480;28;20501;-79
2022/04/01 05:22:49;;;;;;;5.40;4.90;;;5.00;99.90;;;;;;4952753;29;20445;-81
2022/04/01 05:25:19;;;;;;;5.83;4.93;;;5.00;99.90;;;;;;4953517;29;20629;-79
2022/04/01 05:27:49;;;;;;;6.00;5.10;;;5.00;99.90;;;;;;4952043;29;20455;-80
2022/04/01 05:30:18;;;;;;;6.00;5.40;;;5.00;99.90;;;;;;4951539;28;20442;-80
2022/04/01 05:33:01;;;;;;;6.03;5.43;;;5.00;99.90;;;;;;4953906;29;20446;-80
2022/04/01 05:35:35;;;;;;;5.33;4.83;;;5.00;99.90;;;;;;4953751;29;20457;-80
2022/04/01 05:38:02;;;;;;;5.60;4.87;;;4.90;99.90;;;;;;4953398;29;20466;-80
2022/04/01 05:40:30;;;;;;;5.30;4.80;;;4.90;99.90;;;;;;4953561;29;20541;-80
2022/04/01 05:42:58;;;;;;;6.60;5.97;;;4.80;99.90;;;;;;4953145;29;20600;-79
2022/04/01 05:45:27;;;;;;;5.80;5.20;;;4.90;99.90;;;;;;4952956;29;20471;-80
2022/04/01 05:47:55;;;;;;;7.23;6.10;;;4.90;99.90;;;;;;4952516;29;20516;-79
2022/04/01 05:50:23;;;;;;;7.17;6.03;;;4.90;99.90;;;;;;4952233;29;20469;-80
2022/04/01 05:52:53;;;;;;;6.90;5.90;;;4.90;99.90;;;;;;4952194;29;21086;-80
2022/04/01 05:55:23;;;;;;;6.93;6.10;;;4.90;99.90;;;;;;4952180;29;20512;-81
2022/04/01 05:57:50;;;;;;;6.93;5.83;;;4.90;99.90;;;;;;4950509;29;20457;-79
2022/04/01 06:00:18;;;;;;;6.27;5.63;;;5.00;99.90;;;;;;4951382;29;20446;-79
2022/04/01 06:03:17;;;;;;;6.53;5.93;;;5.00;99.90;;;;;;4950875;29;20476;-79
2022/04/01 06:05:48;;;;;;;7.10;5.83;;;5.00;99.90;;;;;;4951089;29;20460;-79
2022/04/01 06:08:20;;;;;;;8.47;7.57;;;4.90;99.90;;;;;;4950548;29;20469;-79
2022/04/01 06:10:58;;;;;;;6.43;5.67;;;4.90;99.90;;;;;;4950948;29;20851;-79
2022/04/01 06:13:38;;;;;;;6.63;5.70;;;4.90;99.90;;;;;;4952199;29;20473;-81
2022/04/01 06:16:18;;;;;;;7.33;5.90;;;4.90;99.90;;;;;;4951343;29;20442;-80
2022/04/01 06:18:54;;;;;;;7.17;6.40;;;4.90;99.90;;;;;;4949818;29;20457;-80
2022/04/01 06:21:25;;;;;;;7.93;6.90;;;4.90;99.90;;;;;;4952352;28;21249;-79
2022/04/01 06:24:06;;;;;;;8.27;7.33;;;5.00;99.90;;;;;;4952588;29;20441;-79
2022/04/01 06:26:38;;;;;;;7.20;6.13;;;4.90;99.90;;;;;;4952123;28;20452;-79
2022/04/01 06:29:28;;;;;;;8.50;7.37;;;4.90;99.90;;;;;;4951324;29;20461;-81
2022/04/01 06:32:05;;;;;;;8.20;7.30;;;4.90;99.90;;;;;;4939388;29;20497;-77
2022/04/01 06:34:46;;;;;;;8.97;7.70;;;5.00;99.90;;;;;;4931946;29;20442;-79
2022/04/01 06:37:20;;;;;;;9.80;7.23;;;5.10;99.90;;;;;;4931472;29;20439;-79
2022/04/01 06:40:00;;;;;;;7.83;7.03;;;5.10;99.90;;;;;;4931228;29;20450;-79
2022/04/01 06:42:31;;;;;;;9.13;8.13;;;4.90;99.90;;;;;;4931495;29;20481;-79
2022/04/01 06:44:59;;;;;;;8.80;7.83;;;4.90;99.90;;;;;;4931524;29;20518;-79
2022/04/01 06:47:26;;;;;;;8.40;7.20;;;4.90;99.90;;;;;;4931042;29;20552;-79
2022/04/01 06:49:53;;;;;;;7.70;6.90;;;5.00;99.90;;;;;;4931225;29;20546;-78
2022/04/01 06:52:20;;;;;;;7.70;6.60;;;5.00;99.90;;;;;;4930788;29;20585;-79
2022/04/01 06:54:48;;;;;;;9.10;7.70;;;5.00;99.90;;;;;;4931117;29;20466;-78
2022/04/01 06:57:15;;;;;;;7.73;6.87;;;5.00;99.90;;;;;;4930038;29;20490;-78
2022/04/01 06:59:42;;;;;;;8.23;6.70;;;5.10;99.90;;;;;;4930951;29;20468;-78
2022/04/01 07:02:09;;;;;;;7.73;6.73;;;5.00;99.90;;;;;;4930980;29;20490;-79
2022/04/01 07:04:36;;;;;;;7.37;6.40;;;5.00;99.90;;;;;;4931819;29;20558;-78
2022/04/01 07:07:04;;;;;;;7.70;6.90;;;5.00;99.90;;;;;;4930704;29;20573;-78
2022/04/01 07:09:31;;;;;;;7.57;6.67;;;5.00;99.90;;;;;;4931772;29;20537;-79
2022/04/01 07:12:01;;;;;;;8.20;7.13;;;5.00;99.90;;;;;;4933039;29;20524;-79
2022/04/01 07:14:28;;;;;;;8.40;7.17;;;5.00;99.90;;;;;;4932412;29;21062;-79
2022/04/01 07:16:55;;;;;;;8.67;6.90;;;5.00;99.90;;;;;;4932043;29;20463;-79
2022/04/01 07:19:22;;;;;;;8.03;7.00;;;5.10;99.90;;;;;;4940936;29;20504;-78
2022/04/01 07:21:49;;;;;;;8.83;7.50;;;5.10;99.90;;;;;;4953632;28;20860;-78
2022/04/01 07:24:17;;;;;;;8.97;7.17;;;5.10;99.90;;;;;;4955437;28;20548;-79
2022/04/01 07:26:45;;;;;;;8.97;7.30;;;5.20;99.90;;;;;;4954641;28;20461;-79
2022/04/01 07:29:14;;;;;;;8.47;7.57;;;5.20;99.90;;;;;;4955540;29;20465;-79
2022/04/01 07:34:31;;;;;;;8.10;6.80;;;5.20;99.90;;;;;;4954149;29;20546;-78
2022/04/01 07:36:58;;;;;;;10.97;8.53;;;5.30;99.90;;;;;;4952238;29;20457;-78
2022/04/01 07:39:25;;;;;;;8.83;7.73;;;5.40;99.90;;;;;;4952721;29;20489;-78
2022/04/01 07:41:52;;;;;;;9.50;8.20;;;5.40;99.90;;;;;;4952176;28;20539;-77
2022/04/01 07:44:20;;;;;;;9.07;7.07;;;5.30;99.90;;;;;;4952617;29;20517;-78
2022/04/01 07:46:48;;;;;;;10.37;8.10;;;5.30;99.90;;;;;;4954095;28;20469;-79
2022/04/01 07:49:14;;;;;;;8.23;7.13;;;5.30;99.90;;;;;;4954835;29;20457;-78
2022/04/01 07:51:43;;;;;;;10.37;7.77;;;5.40;99.90;;;;;;4954975;28;20596;-79
2022/04/01 07:54:10;;;;;;;10.40;8.27;;;5.40;99.90;;;;;;4959400;29;20464;-79
2022/04/01 07:56:37;;;;;;;8.20;6.90;;;5.40;99.90;;;;;;4956858;28;20457;-78
2022/04/01 07:59:04;;;;;;;10.43;8.10;;;5.40;99.90;;;;;;4957208;29;21572;-79
2022/04/01 08:01:32;;;;;;;9.73;7.63;;;5.30;99.90;;;;;;4959208;28;20488;-78
2022/04/01 08:03:59;;;;;;;9.87;7.97;;;5.20;99.90;;;;;;4958584;28;20876;-78
2022/04/01 08:06:26;;;;;;;16.43;10.37;;;5.20;99.90;;;;;;4957420;28;20544;-79
2022/04/01 08:08:55;;;;;;;13.70;10.00;;;5.20;99.90;;;;;;4957368;28;20456;-79
2022/04/01 08:11:23;;;;;;;10.90;8.30;;;5.20;99.90;;;;;;4959338;28;21274;-79
2022/04/01 08:13:50;;;;;;;10.63;8.23;;;5.30;99.90;;;;;;4958120;28;20892;-77
2022/04/01 08:16:17;;;;;;;10.20;8.30;;;5.30;99.90;;;;;;4957152;29;20468;-79
2022/04/01 08:18:45;;;;;;;8.83;6.87;;;5.30;99.90;;;;;;4957326;29;20453;-79
2022/04/01 08:21:12;;;;;;;8.93;7.50;;;5.30;99.90;;;;;;4959684;28;20507;-80
2022/04/01 08:23:39;;;;;;;8.17;6.40;;;5.30;99.90;;;;;;4959869;29;20969;-79
2022/04/01 08:26:07;;;;;;;9.40;7.20;;;5.30;99.90;;;;;;4960066;29;20437;-79
2022/04/01 08:28:35;;;;;;;7.33;6.33;;;5.30;99.90;;;;;;4958530;29;20892;-79
2022/04/01 08:31:03;;;;;;;7.37;6.57;;;5.30;99.90;;;;;;4958438;28;20477;-79
2022/04/01 08:33:30;;;;;;;10.50;7.37;;;5.40;99.90;;;;;;4957523;29;20464;-78
2022/04/01 08:35:58;;;;;;;9.20;7.80;;;5.30;99.90;;;;;;4961141;28;20911;-77
2022/04/01 08:38:25;;;;;;;8.10;7.03;;;5.30;99.90;;;;;;4966874;29;20472;-78
2022/04/01 08:40:54;;;;;;;7.87;6.60;;;5.30;99.90;;;;;;4969160;28;20477;-77
2022/04/01 08:43:29;;;;;;;8.00;6.60;;;5.40;99.90;;;;;;4960729;29;20492;-77
2022/04/01 08:45:57;;;;;;;7.60;6.67;;;5.40;99.90;;;;;;4970472;29;20453;-78
2022/04/01 08:48:27;;;;;;;8.73;7.03;;;5.40;99.90;;;;;;4964573;29;20489;-77
2022/04/01 08:50:55;;;;;;;8.33;6.47;;;5.30;99.90;;;;;;4956572;28;20489;-78
2022/04/01 08:53:23;;;;;;;7.43;6.60;;;5.30;99.90;;;;;;4953885;29;20620;-78
2022/04/01 08:55:53;;;;;;;8.90;6.93;;;5.40;99.90;;;;;;4954825;29;20465;-77
2022/04/01 08:58:21;;;;;;;9.03;7.10;;;5.40;99.90;;;;;;4954594;29;20489;-77
2022/04/01 09:00:49;;;;;;;7.97;6.80;;;5.40;99.90;;;;;;4961723;28;20493;-78
2022/04/01 09:03:17;;;;;;;8.27;7.20;;;5.40;99.90;;;;;;4965313;28;20450;-78
2022/04/01 09:05:46;;;;;;;7.90;6.87;;;5.30;99.90;;;;;;4959076;29;20568;-78
2022/04/01 09:08:15;;;;;;;9.00;7.30;;;5.40;99.90;;;;;;4956280;28;20464;-77
2022/04/01 09:10:58;;;;;;;6.63;5.80;;;5.40;99.90;;;;;;4955929;28;20504;-78
2022/04/01 09:13:27;;;;;;;6.40;5.80;;;5.30;99.90;;;;;;4955787;29;20497;-79
2022/04/01 09:15:55;;;;;;;7.80;6.40;;;5.30;99.90;;;;;;4956927;28;21128;-79
2022/04/01 09:18:36;;;;;;;8.03;7.20;;;5.30;99.90;;;;;;4956255;29;20464;-77
2022/04/01 09:21:04;;;;;;;7.43;5.90;;;5.40;99.90;;;;;;4957590;28;20473;-78
2022/04/01 09:23:31;;;;;;;6.63;5.90;;;5.40;99.90;;;;;;4958086;29;20459;-78
2022/04/01 09:25:59;;;;;;;5.73;5.13;;;5.40;99.90;;;;;;4956232;29;20489;-79
2022/04/01 09:28:29;;;;;;;6.37;5.77;;;5.30;99.90;;;;;;4955519;29;20461;-78
2022/04/01 09:31:06;;;;;;;8.37;6.10;;;5.10;99.90;;;;;;4956246;28;20565;-78
2022/04/01 09:33:47;;;;;;;6.50;5.70;;;5.00;99.90;;;;;;4955566;28;20508;-78
2022/04/01 09:36:16;;;;;;;9.83;5.93;;;4.90;99.90;;;;;;4955401;29;20464;-78
2022/04/01 09:38:53;;;;;;;6.10;4.73;;;5.00;99.90;;;;;;4953884;29;20516;-78
2022/04/01 09:41:21;;;;;;;5.77;5.17;;;5.10;99.90;;;;;;4953356;28;20576;-78
2022/04/01 09:43:48;;;;;;;5.57;4.97;;;5.10;99.90;;;;;;4952712;28;20458;-77
2022/04/01 09:46:26;;;;;;;7.73;5.70;;;5.00;99.90;;;;;;4953281;29;20476;-78
2022/04/01 09:48:57;;;;;;;7.00;6.30;;;5.20;99.90;;;;;;4953130;29;20481;-78
2022/04/01 09:51:24;;;;;;;6.37;5.77;;;5.30;99.90;;;;;;4953285;28;20993;-78
2022/04/01 09:53:52;;;;;;;5.47;4.93;;;5.30;99.90;;;;;;4952610;29;20561;-78
2022/04/01 09:56:35;;;;;;;5.17;4.40;;;5.20;99.90;;;;;;4952870;29;20484;-78
2022/04/01 09:59:04;;;;;;;5.90;4.60;;;5.20;99.90;;;;;;4951476;29;20528;-78
2022/04/01 10:01:34;;;;;;;5.90;5.30;;;5.20;99.90;;;;;;4952008;28;20489;-77
2022/04/01 10:04:01;;;;;;;6.47;5.47;;;5.20;99.90;;;;;;4950806;29;20460;-78
2022/04/01 10:06:29;;;;;;;5.20;3.57;;;5.20;99.90;;;;;;4949971;29;20992;-77
2022/04/01 10:09:00;;;;;;;4.73;4.33;;;5.10;99.90;;;;;;4950818;29;20457;-78
2022/04/01 10:11:29;;;;;;;4.63;4.23;;;5.10;99.90;;;;;;4952049;28;20487;-78
2022/04/01 10:14:01;;;;;;;5.70;5.20;;;5.20;99.90;;;;;;4953026;29;20501;-78
2022/04/01 10:16:28;;;;;;;4.60;4.20;;;5.20;99.90;;;;;;4951336;28;20560;-78
2022/04/01 10:18:59;;;;;;;5.00;4.60;;;5.30;99.90;;;;;;4951822;29;20468;-78
2022/04/01 10:21:26;;;;;;;5.20;4.67;;;5.20;99.90;;;;;;4951242;28;20485;-77
2022/04/01 10:24:02;;;;;;;4.67;4.27;;;5.30;99.90;;;;;;4951266;28;20495;-78
2022/04/01 10:26:33;;;;;;;3.70;3.40;;;5.20;99.90;;;;;;4951049;29;20493;-78
2022/04/01 10:29:02;;;;;;;4.50;4.10;;;5.20;99.90;;;;;;4952206;28;20937;-78
2022/04/01 10:31:29;;;;;;;4.57;4.13;;;5.20;99.90;;;;;;4949646;28;20477;-78
2022/04/01 10:34:19;;;;;;;4.20;3.80;;;5.20;99.90;;;;;;4949661;29;20521;-78
2022/04/01 10:36:54;;;;;;;4.33;3.93;;;5.20;99.90;;;;;;4951109;29;20850;-78
2022/04/01 10:39:21;;;;;;;3.53;3.27;;;5.00;99.90;;;;;;4952491;29;20464;-78
2022/04/01 10:42:07;;;;;;;3.80;3.40;;;5.00;99.90;;;;;;4950297;28;20889;-77
2022/04/01 10:44:51;;;;;;;4.20;3.80;;;5.00;99.90;;;;;;4948984;28;20456;-77
2022/04/01 10:47:19;;;;;;;4.13;3.73;;;5.10;99.90;;;;;;4949471;28;20476;-78
2022/04/01 10:52:31;;;;;;;5.30;4.80;;;5.20;99.90;;;;;;4952151;28;20543;-79
2022/04/01 10:55:12;;;;;;;4.77;3.80;;;5.20;99.90;;;;;;4952435;29;21551;-77
2022/04/01 10:57:45;;;;;;;4.13;3.70;;;5.30;99.90;;;;;;4950467;28;20523;-78
2022/04/01 11:00:15;;;;;;;3.80;3.50;;;5.30;99.90;;;;;;4952458;29;20872;-78
2022/04/01 11:02:43;;;;;;;3.67;3.37;;;5.40;99.90;;;;;;4951169;29;20454;-78
2022/04/01 11:05:28;;;;;;;4.00;3.60;;;5.50;99.90;;;;;;4951598;29;20516;-78
2022/04/01 11:08:19;;;;;;;3.80;3.50;;;5.40;99.90;;;;;;4951528;29;20469;-78
2022/04/01 11:11:09;;;;;;;3.73;3.40;;;5.40;99.90;;;;;;4952071;28;20481;-78
2022/04/01 11:13:38;;;;;;;3.70;3.40;;;5.40;99.90;;;;;;4951213;28;21047;-78
2022/04/01 11:16:25;;;;;;;3.40;3.10;;;5.40;99.90;;;;;;4950290;29;20899;-78
2022/04/01 11:19:19;;;;;;;3.20;2.90;;;5.30;99.90;;;;;;4951298;29;20462;-79
2022/04/01 11:21:47;;;;;;;3.23;3.03;;;5.20;99.90;;;;;;4950616;28;20564;-79
2022/04/01 11:24:31;;;;;;;3.07;2.87;;;5.30;99.90;;;;;;4949658;29;20453;-78
2022/04/01 11:27:06;;;;;;;3.80;3.57;;;5.30;99.90;;;;;;4948183;29;20464;-78
2022/04/01 11:29:35;;;;;;;3.87;3.53;;;5.20;99.90;;;;;;4949387;29;21321;-78
2022/04/01 11:32:08;;;;;;;3.93;3.63;;;5.30;99.90;;;;;;4949371;28;20510;-78
2022/04/01 11:34:55;;;;;;;4.43;4.03;;;5.40;99.90;;;;;;4948615;29;20561;-79
2022/04/01 11:37:22;;;;;;;5.43;4.60;;;5.40;99.90;;;;;;4952501;28;20568;-77
2022/04/01 11:39:49;;;;;;;5.87;5.27;;;5.40;99.90;;;;;;4950409;28;20540;-78
2022/04/01 11:42:16;;;;;;;5.77;5.27;;;5.50;99.90;;;;;;4951712;28;20552;-78
2022/04/01 11:44:58;;;;;;;6.57;5.97;;;5.40;99.90;;;;;;4949636;29;20465;-78
2022/04/01 11:47:32;;;;;;;6.43;5.83;;;5.40;99.90;;;;;;4948814;29;20457;-78
2022/04/01 11:50:09;;;;;;;6.53;5.87;;;5.30;99.90;;;;;;4949401;29;21230;-78
2022/04/01 11:52:38;;;;;;;8.37;6.27;;;5.30;99.90;;;;;;4949691;28;20591;-78
2022/04/01 11:55:12;;;;;;;6.20;5.60;;;5.20;99.90;;;;;;4950041;29;20465;-78
2022/04/01 11:57:40;;;;;;;8.83;7.30;;;5.10;99.90;;;;;;4949839;29;20549;-78
2022/04/01 12:00:12;;;;;;;8.27;6.97;;;5.10;99.90;;;;;;4951013;29;20520;-78
2022/04/01 12:02:39;;;;;;;8.27;7.00;;;5.20;99.90;;;;;;4950108;29;20476;-78
2022/04/01 12:05:09;;;;;;;8.30;6.73;;;5.20;99.90;;;;;;4950274;28;20524;-78
2022/04/01 12:10:25;;;;;;;7.30;6.60;;;5.10;99.90;;;;;;4949689;28;20440;-78
2022/04/01 12:13:00;;;;;;;7.73;6.20;;;5.10;99.90;;;;;;4950531;29;21093;-78
2022/04/01 12:15:33;;;;;;;7.47;6.67;;;5.10;99.90;;;;;;4951890;29;20993;-78
2022/04/01 12:18:00;;;;;;;6.50;5.73;;;5.10;99.90;;;;;;4950858;29;20457;-78
2022/04/01 12:20:28;;;;;;;6.10;5.50;;;5.10;99.90;;;;;;4953123;28;20452;-78
2022/04/01 12:22:56;;;;;;;7.60;6.37;;;5.20;99.90;;;;;;4950736;29;20942;-78
2022/04/01 12:25:24;;;;;;;8.87;7.50;;;5.20;99.90;;;;;;4948956;29;20465;-77
2022/04/01 12:27:55;;;;;;;9.00;8.10;;;5.10;99.90;;;;;;4947753;29;20508;-76
2022/04/01 12:30:34;;;;;;;8.83;7.93;;;5.00;99.90;;;;;;4948642;28;20540;-77
2022/04/01 12:33:04;;;;;;;9.57;8.60;;;5.00;99.90;;;;;;4949061;29;21610;-77
2022/04/01 12:35:31;;;;;;;9.70;8.67;;;4.90;99.90;;;;;;4948764;28;20460;-77
2022/04/01 12:38:09;;;;;;;12.83;9.47;;;4.90;99.90;;;;;;4948189;28;20485;-77
2022/04/01 12:40:50;;;;;;;9.37;8.27;;;4.80;99.90;;;;;;4953134;28;20481;-79
2022/04/01 12:43:37;;;;;;;9.77;8.77;;;4.90;99.90;;;;;;4953170;29;20489;-72
2022/04/01 12:46:07;;;;;;;10.90;9.03;;;4.80;99.90;;;;;;4950371;28;20544;-68
2022/04/01 12:48:47;;;;;;;17.33;15.57;;;4.80;99.90;;;;;;4949550;28;20445;-72
2022/04/01 12:51:19;;;;;;;13.33;11.60;;;4.70;99.90;;;;;;4950093;28;20491;-70
2022/04/01 12:54:04;;;;;;;15.30;13.67;;;4.70;99.90;;;;;;4949665;29;20500;-71
2022/04/01 12:56:33;;;;;;;12.80;11.17;;;4.70;99.90;;;;;;4949030;29;21022;-70
2022/04/01 12:59:04;;;;;;;12.33;11.03;;;4.70;99.90;;;;;;4949866;28;20466;-70
2022/04/01 13:01:36;;;;;;;14.63;12.10;;;4.70;99.90;;;;;;4949620;28;21673;-71
2022/04/01 13:04:03;;;;;;;12.57;9.93;;;4.60;99.90;;;;;;4949760;29;20453;-71
2022/04/01 13:06:31;;;;;;;14.00;11.53;;;4.60;99.90;;;;;;4948861;29;20452;-70
2022/04/01 13:09:04;;;;;;;13.90;11.50;;;4.50;99.90;;;;;;4949513;29;20466;-69
2022/04/01 13:11:36;;;;;;;15.30;12.57;;;4.60;99.90;;;;;;4949373;28;20592;-72
2022/04/01 13:14:04;;;;;;;15.17;12.40;;;4.50;99.90;;;;;;4949676;29;20501;-72
2022/04/01 13:16:40;;;;;;;13.73;12.00;;;4.50;99.90;;;;;;4950206;29;20830;-79
2022/04/01 13:19:23;;;;;;;13.77;11.80;;;4.60;99.90;;;;;;4956874;29;20486;-81
2022/04/01 13:21:51;;;;;;;14.40;12.23;;;4.50;99.90;;;23.47;0.00;147136.53;4955210;28;20535;-80
2022/04/01 13:24:23;;;;;;;13.83;11.70;;;4.60;99.90;;;;;;4955200;29;20483;-80
2022/04/01 13:26:52;;;;;;;14.47;11.70;;;4.60;99.90;;;;;;4954804;29;20922;-82
2022/04/01 13:29:19;;;;;;;11.77;10.20;;;4.60;99.90;;;;;;4960524;28;20445;-81
2022/04/01 13:31:51;;;;;;;12.23;10.93;;;4.50;99.90;;;;;;4954050;28;20484;-81
2022/04/01 13:34:18;;;;;;;12.13;10.60;;;4.50;99.90;;;;;;4955400;29;20977;-80
2022/04/01 13:36:45;;;;;;;15.13;11.40;;;4.60;99.90;;;;;;4956545;29;20517;-82
2022/04/01 13:39:12;;;;;;;12.27;10.33;;;4.60;99.90;;;;;;4957944;29;20517;-81
2022/04/01 13:41:39;;;;;;;16.70;11.67;;;4.50;99.90;;;;;;4957173;28;20481;-80
2022/04/01 13:44:06;;;;;;;16.03;11.83;;;4.50;99.90;;;;;;4957430;29;20551;-81
2022/04/01 13:46:33;;;;;;;13.70;11.30;;;4.50;99.90;;;;;;4955806;29;20542;-83
2022/04/01 13:49:02;;;;;;;16.20;12.30;;;4.60;99.90;;;;;;4954887;29;20528;-80
2022/04/01 13:51:29;;;;;;;13.57;11.60;;;4.60;99.90;;;;;;4939835;29;20474;-82
2022/04/01 13:53:56;;;;;;;13.60;11.93;;;4.70;99.90;;;;;;4948488;29;21089;-82
2022/04/01 13:56:24;;;;;;;11.67;10.43;;;4.80;99.90;;;;;;4950576;29;20467;-80
2022/04/01 13:58:51;;;;;;;12.17;10.83;;;4.70;99.90;;;;;;4954269;28;20537;-81
2022/04/01 14:01:18;;;;;;;16.27;14.20;;;4.70;99.90;;;;;;4937243;29;20517;-80
2022/04/01 14:03:45;;;;;;;16.57;14.87;;;4.70;99.90;;;;;;4935367;29;20465;-80
2022/04/01 14:06:13;;;;;;;15.60;12.90;;;4.70;99.90;;;;;;4934437;29;21057;-80
2022/04/01 14:08:40;;;;;;;19.17;17.37;;;4.70;99.90;;;;;;4933052;29;20459;-80
2022/04/01 14:11:08;;;;;;;13.70;10.87;;;4.70;99.90;;;;;;4932635;29;20479;-79
2022/04/01 14:13:35;;;;;;;13.40;12.00;;;4.60;99.90;;;;;;4933276;29;20609;-80
2022/04/01 14:16:03;;;;;;;16.60;14.37;;;4.60;99.90;;;;;;4932903;29;20459;-79
2022/04/01 14:18:30;;;;;;;13.40;10.87;;;4.60;99.90;;;;;;4936607;29;20489;-83
2022/04/01 14:20:58;;;;;;;13.30;11.43;;;4.70;99.90;;;;;;4938145;29;20517;-79
2022/04/01 14:23:28;;;;;;;13.37;10.73;;;4.70;99.90;;;;;;4939864;29;20446;-79
2022/04/01 14:25:55;;;;;;;11.80;9.87;;;4.60;99.90;;;;;;4937804;29;20840;-81
2022/04/01 14:28:22;;;;;;;12.93;10.97;;;4.70;99.90;;;;;;4935631;29;20453;-78
2022/04/01 14:30:50;;;;;;;14.10;11.40;;;4.70;99.90;;;;;;4935783;29;21007;-82
2022/04/01 14:33:17;;;;;;;13.90;10.77;;;4.70;99.90;;;;;;4936283;29;20509;-81
2022/04/01 14:35:46;;;;;;;14.57;11.50;;;4.70;99.90;;;;;;4936284;29;20450;-79
2022/04/01 14:38:14;;;;;;;17.13;13.10;;;4.70;99.90;;;;;;4933030;29;20469;-80
2022/04/01 14:40:42;;;;;;;17.23;13.10;;;4.80;99.90;;;;;;4932409;29;20569;-80
2022/04/01 14:43:09;;;;;;;18.63;14.27;;;4.80;99.90;;;;;;4933517;29;20453;-79
2022/04/01 14:45:37;;;;;;;16.17;12.53;;;4.80;99.90;;;;;;4934222;29;21048;-84
2022/04/01 14:48:05;;;;;;;18.27;13.60;;;4.70;99.90;;;;;;4933077;29;20490;-81
2022/04/01 14:50:38;;;;;;;14.93;12.10;;;4.80;99.90;;;;;;4932854;29;20474;-81
2022/04/01 14:53:05;;;;;;;14.50;12.20;;;4.70;99.90;;;;;;4931197;29;20463;-79
2022/04/01 14:55:32;;;;;;;17.83;13.13;;;4.70;99.90;;;;;;4931671;29;20482;-79
2022/04/01 14:58:01;;;;;;;18.03;13.17;;;4.70;99.90;;;;;;4932720;29;20458;-81
2022/04/01 15:00:28;;;;;;;17.50;13.40;;;4.70;99.90;;;;;;4933537;29;20490;-79
2022/04/01 15:02:56;;;;;;;15.90;12.20;;;4.60;99.90;;;23.47;0.00;109457.34;4930371;29;20466;-79
2022/04/01 15:05:24;;;;;;;17.23;12.10;;;4.60;99.90;;;;;;4931417;29;20546;-79
2022/04/01 15:07:51;;;;;;;17.10;13.73;;;4.50;99.90;;;;;;4930772;29;20509;-80
2022/04/01 15:10:19;;;;;;;16.30;12.73;;;4.40;99.90;;;;;;4931048;29;20797;-79
2022/04/01 15:12:50;;;;;;;19.60;12.13;;;4.50;99.90;;;;;;4931113;29;20462;-79
2022/04/01 15:15:19;;;;;;;16.63;12.00;;;4.40;99.90;;;;;;4929336;29;20525;-78
2022/04/01 15:17:46;;;;;;;16.03;11.67;;;4.40;99.90;;;;;;4932784;29;20447;-78
2022/04/01 15:20:15;;;;;;;18.60;13.43;;;4.40;99.90;;;;;;4939983;29;20752;-77
2022/04/01 15:22:43;;;;;;;16.67;13.50;;;4.50;99.90;;;;;;4940135;29;20970;-78
2022/04/01 15:25:12;;;;;;;16.97;12.93;;;4.60;99.90;;;;;;4949207;29;20492;-78
2022/04/01 15:27:40;;;;;;;16.77;13.53;;;4.60;99.90;;;;;;4947117;29;20516;-77
2022/04/01 15:30:08;;;;;;;14.87;11.97;;;4.50;99.90;;;;;;4948411;28;20504;-78
2022/04/01 15:32:36;;;;;;;13.73;11.33;;;4.50;99.90;;;;;;4948265;28;20470;-78
2022/04/01 15:35:03;;;;;;;15.40;11.67;;;4.50;99.90;;;;;;4948983;29;20520;-78
2022/04/01 15:37:37;;;;;;;14.30;11.80;;;4.50;99.90;;;;;;4948049;29;20461;-78
2022/04/01 15:40:08;;;;;;;13.90;11.40;;;4.40;99.90;;;;;;4948615;29;20469;-78
2022/04/01 15:42:35;;;;;;;15.30;11.90;;;4.40;99.90;;;;;;4947530;28;20476;-77
2022/04/01 15:45:04;;;;;;;14.10;11.20;;;4.40;99.90;;;;;;4948010;29;20540;-79
2022/04/01 15:47:33;;;;;;;13.87;11.13;;;4.30;99.90;;;;;;4949633;29;20453;-79
2022/04/01 15:50:04;;;;;;;14.00;11.63;;;4.30;99.90;;;;;;4948685;29;20544;-79
2022/04/01 15:52:34;;;;;;;13.90;10.47;;;4.20;99.90;;;;;;4949666;28;20480;-80
2022/04/01 15:55:03;;;;;;;14.07;11.60;;;4.20;99.90;;;;;;4950275;29;20536;-81
2022/04/01 15:57:31;;;;;;;16.90;12.93;;;4.20;99.90;;;;;;4950035;29;20493;-83
2022/04/01 15:59:59;;;;;;;16.20;12.37;;;4.20;99.90;;;;;;4950697;29;20465;-79
2022/04/01 16:02:32;;;;;;;15.63;12.80;;;4.30;99.90;;;;;;4949825;28;20512;-80
2022/04/01 16:05:00;;;;;;;14.80;11.70;;;4.30;99.90;;;;;;4943025;28;20453;-81
2022/04/01 16:07:32;;;;;;;14.20;11.80;;;4.30;99.90;;;;;;4935273;29;20466;-81
2022/04/01 16:10:01;;;;;;;14.63;12.17;;;4.30;99.90;;;;;;4937098;29;20487;-80
2022/04/01 16:12:31;;;;;;;12.97;11.00;;;4.30;99.90;;;;;;4945968;29;20505;-82
2022/04/01 16:15:00;;;;;;;16.50;12.37;;;4.30;99.90;;;;;;4937298;29;21024;-80
2022/04/01 16:17:29;;;;;;;14.77;11.80;;;4.30;99.90;;;;;;4949534;29;20461;-81
2022/04/01 16:20:00;;;;;;;15.60;12.00;;;4.20;99.90;;;;;;4956143;29;20468;-80
2022/04/01 16:22:30;;;;;;;17.00;12.97;;;4.20;99.90;;;;;;4937564;29;20474;-80
2022/04/01 16:24:59;;;;;;;17.60;13.07;;;4.20;99.90;;;;;;4933861;29;20537;-80
2022/04/01 16:27:27;;;;;;;14.80;12.20;;;4.20;99.90;;;;;;4935518;29;21034;-80
2022/04/01 16:30:02;;;;;;;17.67;13.40;;;4.10;99.90;;;;;;4937934;29;20454;-81
2022/04/01 16:32:29;;;;;;;14.30;11.87;;;4.10;99.90;;;;;;4946952;29;20477;-78
2022/04/01 16:35:01;;;;;;;14.00;12.10;;;4.20;99.90;;;;;;4951165;29;20768;-81
2022/04/01 16:37:29;;;;;;;15.57;12.30;;;4.10;99.90;;;;;;4942893;29;20509;-81
2022/04/01 16:39:57;;;;;;;15.77;12.57;;;4.10;99.90;;;;;;4937662;29;20464;-79
2022/04/01 16:42:24;;;;;;;15.07;12.30;;;4.20;99.90;;;;;;4933329;29;20770;-79
2022/04/01 16:44:51;;;;;;;16.67;12.73;;;4.20;99.90;;;;;;4937526;29;20533;-79
2022/04/01 16:47:18;;;;;;;16.10;13.03;;;4.20;99.90;;;;;;4939871;29;20466;-81
2022/04/01 16:49:48;;;;;;;15.90;13.30;;;4.20;99.90;;;;;;4941256;29;20518;-79
2022/04/01 16:52:15;;;;;;;17.00;12.70;;;4.20;99.90;;;;;;4942993;29;20498;-80
2022/04/01 16:54:44;;;;;;;22.57;15.10;;;4.10;99.90;;;;;;4939833;29;20502;-80
2022/04/01 16:57:11;;;;;;;26.20;17.10;;;4.10;99.90;;;;;;4933180;29;20458;-83
2022/04/01 16:59:38;;;;;;;29.73;15.80;;;4.20;99.90;;;;;;4933836;29;20482;-78
2022/04/01 17:02:08;;;;;;;24.67;17.33;;;4.20;99.90;;;;;;4933731;29;20512;-80
2022/04/01 17:04:36;;;;;;;18.80;13.70;;;4.20;99.90;;;;;;4934697;29;20458;-82
2022/04/01 17:12:35;;;;;;;15.87;13.83;;;4.00;99.90;;;;;;4934960;29;20476;-82
2022/04/01 17:15:07;;;;;;;16.90;13.73;;;3.90;99.90;;;;;;4934794;29;20506;-81
2022/04/01 17:17:40;;;;;;;16.35;14.65;;;3.80;99.90;;;;;;4937357;29;20520;-79
2022/04/01 17:20:08;;;;;;;16.23;14.53;;;4.10;99.90;;;;;;4933703;29;20214;-82